This is the latest recevied weather packets stored in our database for station/object DB0MOD. If no packets are shown the sender has not sent any weather packets the latest 10 day(s).
| Time | Temp. | Humidity | Pressure | Rain* | Wind** | Luminosity | Snow |
|---|---|---|---|---|---|---|---|
| 1777656856 | 15.56° C | 39% | 1023.4 hPa | 0 mm | - | - | - |
| 1777656557 | 15.56° C | 39% | 1023.4 hPa | 0 mm | - | - | - |
| 1777656256 | 15.56° C | 38% | 1023.7 hPa | 0 mm | - | - | - |
| 1777655956 | 15.56° C | 37% | 1023.6 hPa | 0 mm | - | - | - |
| 1777655656 | 16.11° C | 37% | 1023.7 hPa | 0 mm | - | - | - |
| 1777655356 | 16.67° C | 36% | 1023.8 hPa | 0 mm | - | - | - |
| 1777655056 | 16.67° C | 36% | 1023.7 hPa | 0 mm | - | - | - |
| 1777654756 | 16.67° C | 35% | 1023.8 hPa | 0 mm | - | - | - |
| 1777654456 | 17.22° C | 35% | 1023.7 hPa | 0 mm | - | - | - |
| 1777654156 | 17.78° C | 33% | 1024 hPa | 0 mm | - | - | - |
| 1777653856 | 17.78° C | 33% | 1023.8 hPa | 0 mm | - | - | - |
| 1777653556 | 18.89° C | 31% | 1024 hPa | 0 mm | - | - | - |
| 1777653256 | 20° C | 30% | 1024 hPa | 0 mm | - | - | - |
| 1777652956 | 21.67° C | 28% | 1023.9 hPa | 0 mm | - | - | - |
| 1777652656 | 24.44° C | 24% | 1023.9 hPa | 0 mm | - | - | - |
| 1777652356 | 27.22° C | 23% | 1024.1 hPa | 0 mm | - | - | - |
| 1777652056 | 27.78° C | 23% | 1024.1 hPa | 0 mm | - | - | - |
| 1777651756 | 27.78° C | 24% | 1024.1 hPa | 0 mm | - | - | - |
| 1777651456 | 27.22° C | 24% | 1024 hPa | 0 mm | - | - | - |
| 1777651156 | 26.67° C | 24% | 1024.1 hPa | 0 mm | - | - | - |
| 1777650856 | 26.11° C | 26% | 1024 hPa | 0 mm | - | - | - |
| 1777650556 | 25.56° C | 26% | 1024.1 hPa | 0 mm | - | - | - |
| 1777650256 | 25° C | 27% | 1024.3 hPa | 0 mm | - | - | - |
| 1777649956 | 23.89° C | 27% | 1024.2 hPa | 0 mm | - | - | - |
| 1777649656 | 23.33° C | 28% | 1024.1 hPa | 0 mm | - | - | - |
* Rain latest hour (hover to see other rain measurements)
** Current wind speed in m/s (hover to see current wind gust speed)